sensor_id;sensor_type;location;lat;lon;timestamp;pressure;altitude;pressure_sealevel;temperature;humidity
70009;BME280;59542;37.950;-122.338;2023-08-30T00:00:56;101117.63;;;29.89;34.10
70009;BME280;59542;37.950;-122.338;2023-08-30T00:03:22;101117.13;;;29.87;35.60
70009;BME280;59542;37.950;-122.338;2023-08-30T00:05:49;101114.13;;;29.62;34.56
70009;BME280;59542;37.950;-122.338;2023-08-30T00:08:15;101106.59;;;29.80;34.43
70009;BME280;59542;37.950;-122.338;2023-08-30T00:10:45;101111.69;;;29.43;34.57
70009;BME280;59542;37.950;-122.338;2023-08-30T00:13:12;101108.94;;;29.35;34.56
70009;BME280;59542;37.950;-122.338;2023-08-30T00:15:38;101110.38;;;29.50;34.00
70009;BME280;59542;37.950;-122.338;2023-08-30T00:18:04;101112.03;;;29.25;35.53
70009;BME280;59542;37.950;-122.338;2023-08-30T00:20:31;101094.84;;;29.28;35.39
70009;BME280;59542;37.950;-122.338;2023-08-30T00:22:58;101099.84;;;28.91;35.21
70009;BME280;59542;37.950;-122.338;2023-08-30T00:25:24;101099.25;;;28.94;35.31
70009;BME280;59542;37.950;-122.338;2023-08-30T00:27:50;101099.22;;;29.03;35.80
70009;BME280;59542;37.950;-122.338;2023-08-30T00:30:17;101096.09;;;28.87;36.39
70009;BME280;59542;37.950;-122.338;2023-08-30T00:32:43;101093.34;;;28.61;36.04
70009;BME280;59542;37.950;-122.338;2023-08-30T00:35:10;101102.53;;;28.39;36.67
70009;BME280;59542;37.950;-122.338;2023-08-30T00:37:36;101100.50;;;28.22;37.38
70009;BME280;59542;37.950;-122.338;2023-08-30T00:40:03;101094.47;;;28.11;37.70
70009;BME280;59542;37.950;-122.338;2023-08-30T00:42:29;101088.56;;;27.96;38.00
70009;BME280;59542;37.950;-122.338;2023-08-30T00:44:55;101090.75;;;28.16;38.20
70009;BME280;59542;37.950;-122.338;2023-08-30T00:47:22;101091.47;;;27.91;38.24
70009;BME280;59542;37.950;-122.338;2023-08-30T00:49:48;101086.50;;;28.01;39.92
70009;BME280;59542;37.950;-122.338;2023-08-30T00:52:15;101088.53;;;27.87;38.22
70009;BME280;59542;37.950;-122.338;2023-08-30T00:54:41;101086.94;;;27.95;38.25
70009;BME280;59542;37.950;-122.338;2023-08-30T00:57:08;101083.28;;;28.08;38.64
70009;BME280;59542;37.950;-122.338;2023-08-30T00:59:35;101081.97;;;28.05;39.13
70009;BME280;59542;37.950;-122.338;2023-08-30T01:02:02;101084.00;;;27.60;39.71
70009;BME280;59542;37.950;-122.338;2023-08-30T01:04:30;101077.97;;;27.80;40.53
70009;BME280;59542;37.950;-122.338;2023-08-30T01:06:56;101084.19;;;27.95;40.79
70009;BME280;59542;37.950;-122.338;2023-08-30T01:09:24;101080.00;;;27.97;40.47
70009;BME280;59542;37.950;-122.338;2023-08-30T01:12:34;101081.13;;;27.96;41.06
70009;BME280;59542;37.950;-122.338;2023-08-30T01:15:12;101084.97;;;27.86;41.10
70009;BME280;59542;37.950;-122.338;2023-08-30T01:17:41;101075.91;;;27.86;40.73
70009;BME280;59542;37.950;-122.338;2023-08-30T01:20:12;101081.94;;;27.97;40.84
70009;BME280;59542;37.950;-122.338;2023-08-30T01:22:58;101078.22;;;28.01;41.28
70009;BME280;59542;37.950;-122.338;2023-08-30T01:25:52;101075.28;;;27.89;41.53
70009;BME280;59542;37.950;-122.338;2023-08-30T01:28:22;101079.16;;;27.88;41.35
70009;BME280;59542;37.950;-122.338;2023-08-30T01:30:50;101073.94;;;27.78;41.95
70009;BME280;59542;37.950;-122.338;2023-08-30T01:33:20;101070.94;;;27.66;41.57
70009;BME280;59542;37.950;-122.338;2023-08-30T01:35:47;101071.56;;;27.62;41.82
70009;BME280;59542;37.950;-122.338;2023-08-30T01:38:14;101061.94;;;27.74;41.50
70009;BME280;59542;37.950;-122.338;2023-08-30T01:40:43;101063.06;;;27.73;41.82
70009;BME280;59542;37.950;-122.338;2023-08-30T01:43:11;101059.09;;;27.65;41.53
70009;BME280;59542;37.950;-122.338;2023-08-30T01:45:42;101066.88;;;27.41;42.26
70009;BME280;59542;37.950;-122.338;2023-08-30T01:48:12;101058.84;;;27.44;42.07
70009;BME280;59542;37.950;-122.338;2023-08-30T01:50:40;101063.06;;;27.50;42.18
70009;BME280;59542;37.950;-122.338;2023-08-30T01:53:08;101059.69;;;27.31;41.93
70009;BME280;59542;37.950;-122.338;2023-08-30T01:55:36;101057.91;;;27.26;42.04
70009;BME280;59542;37.950;-122.338;2023-08-30T01:58:04;101058.34;;;27.20;42.78
70009;BME280;59542;37.950;-122.338;2023-08-30T02:00:30;101060.22;;;27.10;41.96
70009;BME280;59542;37.950;-122.338;2023-08-30T02:02:57;101050.97;;;27.29;43.06
70009;BME280;59542;37.950;-122.338;2023-08-30T02:05:23;101065.66;;;27.24;43.41
70009;BME280;59542;37.950;-122.338;2023-08-30T02:08:05;101061.97;;;27.29;43.33
70009;BME280;59542;37.950;-122.338;2023-08-30T02:10:35;101058.22;;;27.25;43.87
70009;BME280;59542;37.950;-122.338;2023-08-30T02:13:04;101053.94;;;26.96;44.10
70009;BME280;59542;37.950;-122.338;2023-08-30T02:15:33;101054.09;;;27.14;43.80
70009;BME280;59542;37.950;-122.338;2023-08-30T02:17:59;101060.56;;;26.45;45.58
70009;BME280;59542;37.950;-122.338;2023-08-30T02:20:26;101059.03;;;26.53;45.67
70009;BME280;59542;37.950;-122.338;2023-08-30T02:22:52;101054.78;;;26.47;45.71
70009;BME280;59542;37.950;-122.338;2023-08-30T02:25:18;101048.97;;;26.35;46.22
70009;BME280;59542;37.950;-122.338;2023-08-30T02:27:49;101051.44;;;26.22;46.83
70009;BME280;59542;37.950;-122.338;2023-08-30T02:30:15;101051.53;;;26.17;47.11
70009;BME280;59542;37.950;-122.338;2023-08-30T02:32:42;101055.69;;;25.87;47.82
70009;BME280;59542;37.950;-122.338;2023-08-30T02:35:08;101055.00;;;25.63;48.61
70009;BME280;59542;37.950;-122.338;2023-08-30T02:37:34;101046.97;;;25.52;47.22
70009;BME280;59542;37.950;-122.338;2023-08-30T02:40:01;101049.28;;;25.45;47.05
70009;BME280;59542;37.950;-122.338;2023-08-30T02:42:28;101050.50;;;25.39;46.84
70009;BME280;59542;37.950;-122.338;2023-08-30T02:44:55;101051.59;;;25.06;47.60
70009;BME280;59542;37.950;-122.338;2023-08-30T02:47:21;101053.50;;;25.05;48.04
70009;BME280;59542;37.950;-122.338;2023-08-30T02:49:47;101049.78;;;25.15;47.75
70009;BME280;59542;37.950;-122.338;2023-08-30T02:52:13;101055.22;;;24.82;48.34
70009;BME280;59542;37.950;-122.338;2023-08-30T02:54:41;101053.81;;;24.66;48.88
70009;BME280;59542;37.950;-122.338;2023-08-30T02:57:08;101049.63;;;24.87;48.87
70009;BME280;59542;37.950;-122.338;2023-08-30T02:59:34;101056.31;;;24.81;48.81
70009;BME280;59542;37.950;-122.338;2023-08-30T03:02:00;101046.38;;;24.47;50.27
70009;BME280;59542;37.950;-122.338;2023-08-30T03:04:27;101049.47;;;24.41;50.92
70009;BME280;59542;37.950;-122.338;2023-08-30T03:06:53;101052.97;;;24.22;52.21
70009;BME280;59542;37.950;-122.338;2023-08-30T03:09:19;101049.19;;;24.18;52.25
70009;BME280;59542;37.950;-122.338;2023-08-30T03:11:46;101054.41;;;24.15;52.26
70009;BME280;59542;37.950;-122.338;2023-08-30T03:14:12;101053.91;;;23.89;53.26
70009;BME280;59542;37.950;-122.338;2023-08-30T03:16:39;101051.44;;;23.87;53.50
70009;BME280;59542;37.950;-122.338;2023-08-30T03:19:05;101060.53;;;23.83;53.67
70009;BME280;59542;37.950;-122.338;2023-08-30T03:21:32;101057.00;;;23.82;54.27
70009;BME280;59542;37.950;-122.338;2023-08-30T03:23:58;101060.09;;;23.70;54.68
70009;BME280;59542;37.950;-122.338;2023-08-30T03:26:24;101061.69;;;23.77;55.01
70009;BME280;59542;37.950;-122.338;2023-08-30T03:28:50;101055.25;;;23.62;55.41
70009;BME280;59542;37.950;-122.338;2023-08-30T03:31:18;101068.66;;;23.59;55.82
70009;BME280;59542;37.950;-122.338;2023-08-30T03:33:45;101076.66;;;23.50;56.60
70009;BME280;59542;37.950;-122.338;2023-08-30T03:36:13;101076.97;;;23.49;56.87
70009;BME280;59542;37.950;-122.338;2023-08-30T03:38:40;101078.59;;;23.50;56.81
70009;BME280;59542;37.950;-122.338;2023-08-30T03:41:08;101078.03;;;23.48;57.03
70009;BME280;59542;37.950;-122.338;2023-08-30T03:43:34;101075.25;;;23.53;57.11
70009;BME280;59542;37.950;-122.338;2023-08-30T03:46:01;101082.97;;;23.45;57.43
70009;BME280;59542;37.950;-122.338;2023-08-30T03:48:29;101083.09;;;23.30;58.10
70009;BME280;59542;37.950;-122.338;2023-08-30T03:50:56;101084.72;;;23.31;58.59
70009;BME280;59542;37.950;-122.338;2023-08-30T03:53:23;101091.97;;;23.12;59.55
70009;BME280;59542;37.950;-122.338;2023-08-30T03:55:50;101096.19;;;22.99;60.40
70009;BME280;59542;37.950;-122.338;2023-08-30T03:58:18;101095.66;;;22.92;60.49
70009;BME280;59542;37.950;-122.338;2023-08-30T04:00:44;101090.75;;;22.94;60.67
70009;BME280;59542;37.950;-122.338;2023-08-30T04:03:13;101099.47;;;22.91;60.37
70009;BME280;59542;37.950;-122.338;2023-08-30T04:05:41;101098.16;;;22.88;60.17
70009;BME280;59542;37.950;-122.338;2023-08-30T04:08:07;101091.31;;;22.81;60.01
70009;BME280;59542;37.950;-122.338;2023-08-30T04:10:41;101098.75;;;22.65;59.65
70009;BME280;59542;37.950;-122.338;2023-08-30T04:13:08;101096.03;;;22.65;59.30
70009;BME280;59542;37.950;-122.338;2023-08-30T04:15:36;101106.41;;;22.63;59.62
70009;BME280;59542;37.950;-122.338;2023-08-30T04:18:03;101096.69;;;22.47;60.54
70009;BME280;59542;37.950;-122.338;2023-08-30T04:20:30;101104.09;;;22.26;61.98
70009;BME280;59542;37.950;-122.338;2023-08-30T04:22:56;101108.75;;;22.25;62.47
70009;BME280;59542;37.950;-122.338;2023-08-30T04:25:23;101108.25;;;22.13;63.90
70009;BME280;59542;37.950;-122.338;2023-08-30T04:27:50;101107.91;;;22.30;63.90
70009;BME280;59542;37.950;-122.338;2023-08-30T04:30:16;101102.47;;;22.09;65.43
70009;BME280;59542;37.950;-122.338;2023-08-30T04:32:43;101109.03;;;22.03;65.31
70009;BME280;59542;37.950;-122.338;2023-08-30T04:35:09;101116.44;;;21.87;65.91
70009;BME280;59542;37.950;-122.338;2023-08-30T04:37:36;101116.44;;;21.87;65.16
70009;BME280;59542;37.950;-122.338;2023-08-30T04:40:09;101120.25;;;21.81;65.31
70009;BME280;59542;37.950;-122.338;2023-08-30T04:42:36;101122.97;;;21.81;65.34
70009;BME280;59542;37.950;-122.338;2023-08-30T04:45:03;101124.59;;;21.87;65.01
70009;BME280;59542;37.950;-122.338;2023-08-30T04:47:30;101117.00;;;21.84;65.35
70009;BME280;59542;37.950;-122.338;2023-08-30T04:49:57;101117.53;;;21.86;65.57
70009;BME280;59542;37.950;-122.338;2023-08-30T04:52:23;101126.81;;;21.60;66.60
70009;BME280;59542;37.950;-122.338;2023-08-30T04:54:49;101118.63;;;21.40;67.60
70009;BME280;59542;37.950;-122.338;2023-08-30T04:57:16;101113.72;;;21.47;66.69
70009;BME280;59542;37.950;-122.338;2023-08-30T04:59:44;101114.81;;;21.41;66.35
70009;BME280;59542;37.950;-122.338;2023-08-30T05:02:11;101111.00;;;21.31;67.14
70009;BME280;59542;37.950;-122.338;2023-08-30T05:04:38;101106.00;;;20.98;68.58
70009;BME280;59542;37.950;-122.338;2023-08-30T05:07:04;101110.94;;;21.01;68.33
70009;BME280;59542;37.950;-122.338;2023-08-30T05:09:30;101106.56;;;21.00;68.09
70009;BME280;59542;37.950;-122.338;2023-08-30T05:11:58;101107.06;;;20.81;69.33
70009;BME280;59542;37.950;-122.338;2023-08-30T05:14:24;101109.78;;;20.71;69.40
70009;BME280;59542;37.950;-122.338;2023-08-30T05:16:51;101109.78;;;20.71;69.69
70009;BME280;59542;37.950;-122.338;2023-08-30T05:19:17;101110.88;;;20.80;69.05
70009;BME280;59542;37.950;-122.338;2023-08-30T05:21:43;101107.06;;;20.81;68.70
70009;BME280;59542;37.950;-122.338;2023-08-30T05:24:10;101101.06;;;20.79;69.04
70009;BME280;59542;37.950;-122.338;2023-08-30T05:26:37;101097.50;;;20.69;69.74
70009;BME280;59542;37.950;-122.338;2023-08-30T05:29:03;101095.91;;;20.73;69.33
70009;BME280;59542;37.950;-122.338;2023-08-30T05:31:30;101098.09;;;20.86;68.59
70009;BME280;59542;37.950;-122.338;2023-08-30T05:33:56;101103.00;;;20.89;68.64
70009;BME280;59542;37.950;-122.338;2023-08-30T05:36:22;101120.59;;;20.61;69.86
70009;BME280;59542;37.950;-122.338;2023-08-30T05:38:49;101102.06;;;20.53;70.48
70009;BME280;59542;37.950;-122.338;2023-08-30T05:41:15;101112.47;;;20.66;70.09
70009;BME280;59542;37.950;-122.338;2023-08-30T05:43:41;101114.03;;;20.52;70.99
70009;BME280;59542;37.950;-122.338;2023-08-30T05:46:07;101119.38;;;20.37;71.71
70009;BME280;59542;37.950;-122.338;2023-08-30T05:48:40;101110.78;;;20.08;73.40
70009;BME280;59542;37.950;-122.338;2023-08-30T05:51:06;101108.94;;;20.18;72.80
70009;BME280;59542;37.950;-122.338;2023-08-30T05:53:32;101112.84;;;20.33;72.44
70009;BME280;59542;37.950;-122.338;2023-08-30T05:55:58;101109.59;;;20.41;72.09
70009;BME280;59542;37.950;-122.338;2023-08-30T05:58:25;101119.38;;;20.37;72.37
70009;BME280;59542;37.950;-122.338;2023-08-30T06:00:51;101112.50;;;20.24;72.28
70009;BME280;59542;37.950;-122.338;2023-08-30T06:03:17;101112.44;;;20.14;73.35
70009;BME280;59542;37.950;-122.338;2023-08-30T06:05:43;101115.75;;;20.16;73.54
70009;BME280;59542;37.950;-122.338;2023-08-30T06:08:10;101119.78;;;20.13;73.58
70009;BME280;59542;37.950;-122.338;2023-08-30T06:10:36;101114.31;;;20.08;73.22
70009;BME280;59542;37.950;-122.338;2023-08-30T06:13:02;101121.34;;;20.04;73.76
70009;BME280;59542;37.950;-122.338;2023-08-30T06:15:29;101114.16;;;19.83;74.19
70009;BME280;59542;37.950;-122.338;2023-08-30T06:17:55;101114.44;;;19.86;73.65
70009;BME280;59542;37.950;-122.338;2023-08-30T06:20:21;101110.97;;;19.96;73.24
70009;BME280;59542;37.950;-122.338;2023-08-30T06:22:48;101102.38;;;20.14;71.92
70009;BME280;59542;37.950;-122.338;2023-08-30T06:25:14;101109.28;;;19.85;73.22
70009;BME280;59542;37.950;-122.338;2023-08-30T06:27:56;101115.56;;;19.58;74.78
70009;BME280;59542;37.950;-122.338;2023-08-30T06:30:25;101107.13;;;19.87;73.67
70009;BME280;59542;37.950;-122.338;2023-08-30T06:32:51;101106.03;;;19.83;73.10
70009;BME280;59542;37.950;-122.338;2023-08-30T06:35:17;101098.88;;;19.76;73.30
70009;BME280;59542;37.950;-122.338;2023-08-30T06:37:44;101103.22;;;19.72;73.53
70009;BME280;59542;37.950;-122.338;2023-08-30T06:40:10;101104.03;;;19.73;73.75
70009;BME280;59542;37.950;-122.338;2023-08-30T06:42:37;101101.22;;;19.95;73.23
70009;BME280;59542;37.950;-122.338;2023-08-30T06:45:04;101099.22;;;19.85;73.56
70009;BME280;59542;37.950;-122.338;2023-08-30T06:47:30;101102.91;;;19.69;74.03
70009;BME280;59542;37.950;-122.338;2023-08-30T06:49:57;101100.47;;;19.67;74.13
70009;BME280;59542;37.950;-122.338;2023-08-30T06:52:23;101097.28;;;19.81;74.17
70009;BME280;59542;37.950;-122.338;2023-08-30T06:54:49;101098.56;;;19.68;74.87
70009;BME280;59542;37.950;-122.338;2023-08-30T06:57:16;101092.88;;;19.69;74.64
70009;BME280;59542;37.950;-122.338;2023-08-30T06:59:42;101092.97;;;19.52;75.31
70009;BME280;59542;37.950;-122.338;2023-08-30T07:02:08;101098.13;;;19.54;75.23
70009;BME280;59542;37.950;-122.338;2023-08-30T07:04:34;101097.31;;;19.53;75.29
70009;BME280;59542;37.950;-122.338;2023-08-30T07:07:01;101091.84;;;19.43;75.72
70009;BME280;59542;37.950;-122.338;2023-08-30T07:09:27;101087.78;;;19.46;75.32
70009;BME280;59542;37.950;-122.338;2023-08-30T07:11:58;101092.47;;;19.56;75.12
70009;BME280;59542;37.950;-122.338;2023-08-30T07:14:24;101088.63;;;19.51;75.73
70009;BME280;59542;37.950;-122.338;2023-08-30T07:16:52;101089.22;;;19.26;76.07
70009;BME280;59542;37.950;-122.338;2023-08-30T07:19:18;101091.59;;;18.91;74.89
70009;BME280;59542;37.950;-122.338;2023-08-30T07:21:44;101090.59;;;18.75;73.80
70009;BME280;59542;37.950;-122.338;2023-08-30T07:24:11;101087.75;;;18.87;72.67
70009;BME280;59542;37.950;-122.338;2023-08-30T07:26:37;101087.91;;;18.75;71.21
70009;BME280;59542;37.950;-122.338;2023-08-30T07:29:04;101084.34;;;18.53;71.91
70009;BME280;59542;37.950;-122.338;2023-08-30T07:31:33;101082.41;;;18.70;71.40
70009;BME280;59542;37.950;-122.338;2023-08-30T07:33:59;101092.25;;;18.76;71.43
70009;BME280;59542;37.950;-122.338;2023-08-30T07:36:30;101090.59;;;18.53;72.62
70009;BME280;59542;37.950;-122.338;2023-08-30T07:38:58;101094.06;;;18.70;72.31
70009;BME280;59542;37.950;-122.338;2023-08-30T07:41:24;101082.75;;;18.73;74.49
70009;BME280;59542;37.950;-122.338;2023-08-30T07:43:50;101095.16;;;18.69;75.16
70009;BME280;59542;37.950;-122.338;2023-08-30T07:46:17;101097.09;;;18.52;78.81
70009;BME280;59542;37.950;-122.338;2023-08-30T07:48:43;101098.84;;;18.63;78.22
70009;BME280;59542;37.950;-122.338;2023-08-30T07:51:09;101090.53;;;18.70;78.16
70009;BME280;59542;37.950;-122.338;2023-08-30T07:53:35;101095.53;;;18.56;78.93
70009;BME280;59542;37.950;-122.338;2023-08-30T07:56:02;101098.28;;;18.61;79.12
70009;BME280;59542;37.950;-122.338;2023-08-30T07:58:28;101099.13;;;18.62;79.07
70009;BME280;59542;37.950;-122.338;2023-08-30T08:00:54;101094.94;;;18.54;79.91
70009;BME280;59542;37.950;-122.338;2023-08-30T08:03:21;101091.38;;;18.70;79.69
70009;BME280;59542;37.950;-122.338;2023-08-30T08:05:47;101102.28;;;18.76;79.34
70009;BME280;59542;37.950;-122.338;2023-08-30T08:08:14;101101.81;;;18.62;79.67
70009;BME280;59542;37.950;-122.338;2023-08-30T08:10:42;101105.06;;;18.20;82.00
70009;BME280;59542;37.950;-122.338;2023-08-30T08:13:08;101101.69;;;17.91;78.50
70009;BME280;59542;37.950;-122.338;2023-08-30T08:15:34;101099.41;;;17.83;76.83
70009;BME280;59542;37.950;-122.338;2023-08-30T08:18:01;101096.59;;;17.94;75.69
70009;BME280;59542;37.950;-122.338;2023-08-30T08:20:29;101099.13;;;17.67;75.69
70009;BME280;59542;37.950;-122.338;2023-08-30T08:22:56;101099.31;;;17.44;76.75
70009;BME280;59542;37.950;-122.338;2023-08-30T08:25:22;101094.53;;;17.51;76.21
70009;BME280;59542;37.950;-122.338;2023-08-30T08:27:49;101094.41;;;17.75;74.75
70009;BME280;59542;37.950;-122.338;2023-08-30T08:30:19;101094.53;;;17.51;75.58
70009;BME280;59542;37.950;-122.338;2023-08-30T08:32:46;101096.06;;;17.30;75.84
70009;BME280;59542;37.950;-122.338;2023-08-30T08:35:15;101084.69;;;17.45;75.57
70009;BME280;59542;37.950;-122.338;2023-08-30T08:37:42;101081.16;;;17.28;75.79
70009;BME280;59542;37.950;-122.338;2023-08-30T08:40:08;101086.56;;;17.28;74.93
70009;BME280;59542;37.950;-122.338;2023-08-30T08:42:35;101083.44;;;17.19;75.02
70009;BME280;59542;37.950;-122.338;2023-08-30T08:45:05;101085.78;;;17.15;74.37
70009;BME280;59542;37.950;-122.338;2023-08-30T08:47:31;101075.88;;;17.04;74.64
70009;BME280;59542;37.950;-122.338;2023-08-30T08:49:58;101066.38;;;17.19;73.84
70009;BME280;59542;37.950;-122.338;2023-08-30T08:52:26;101064.56;;;17.07;74.53
70009;BME280;59542;37.950;-122.338;2023-08-30T08:54:52;101070.63;;;17.14;74.43
70009;BME280;59542;37.950;-122.338;2023-08-30T08:57:21;101071.63;;;17.25;73.87
70009;BME280;59542;37.950;-122.338;2023-08-30T08:59:47;101075.75;;;17.28;73.90
70009;BME280;59542;37.950;-122.338;2023-08-30T09:02:14;101069.91;;;17.19;74.20
70009;BME280;59542;37.950;-122.338;2023-08-30T09:04:41;101064.16;;;17.15;74.26
70009;BME280;59542;37.950;-122.338;2023-08-30T09:07:07;101061.22;;;17.17;74.64
70009;BME280;59542;37.950;-122.338;2023-08-30T09:09:34;101064.50;;;17.19;74.20
70009;BME280;59542;37.950;-122.338;2023-08-30T09:12:00;101058.53;;;17.17;74.68
70009;BME280;59542;37.950;-122.338;2023-08-30T09:14:26;101063.38;;;16.86;76.28
70009;BME280;59542;37.950;-122.338;2023-08-30T09:17:01;101060.69;;;17.03;75.35
70009;BME280;59542;37.950;-122.338;2023-08-30T09:19:28;101059.72;;;17.09;74.88
70009;BME280;59542;37.950;-122.338;2023-08-30T09:21:56;101056.47;;;17.07;74.26
70009;BME280;59542;37.950;-122.338;2023-08-30T09:24:23;101052.69;;;17.08;74.16
70009;BME280;59542;37.950;-122.338;2023-08-30T09:26:51;101054.91;;;17.11;73.52
70009;BME280;59542;37.950;-122.338;2023-08-30T09:29:19;101052.38;;;17.05;73.64
70009;BME280;59542;37.950;-122.338;2023-08-30T09:31:50;101053.66;;;17.02;73.39
70009;BME280;59542;37.950;-122.338;2023-08-30T09:34:21;101052.50;;;16.98;73.50
70009;BME280;59542;37.950;-122.338;2023-08-30T09:36:48;101051.84;;;16.91;73.95
70009;BME280;59542;37.950;-122.338;2023-08-30T09:39:15;101055.09;;;16.93;74.03
70009;BME280;59542;37.950;-122.338;2023-08-30T09:41:43;101055.63;;;16.90;73.97
70009;BME280;59542;37.950;-122.338;2023-08-30T09:44:13;101043.72;;;16.91;74.10
70009;BME280;59542;37.950;-122.338;2023-08-30T09:46:53;101058.78;;;16.87;73.92
70009;BME280;59542;37.950;-122.338;2023-08-30T09:49:22;101062.09;;;16.89;73.68
70009;BME280;59542;37.950;-122.338;2023-08-30T09:51:49;101062.00;;;16.84;73.86
70009;BME280;59542;37.950;-122.338;2023-08-30T09:54:19;101052.81;;;16.85;74.04
70009;BME280;59542;37.950;-122.338;2023-08-30T09:56:46;101052.81;;;16.85;73.77
70009;BME280;59542;37.950;-122.338;2023-08-30T09:59:14;101053.69;;;16.74;74.44
70009;BME280;59542;37.950;-122.338;2023-08-30T10:01:43;101054.50;;;16.74;74.41
70009;BME280;59542;37.950;-122.338;2023-08-30T10:04:12;101067.47;;;16.60;75.10
70009;BME280;59542;37.950;-122.338;2023-08-30T10:06:39;101060.28;;;16.66;75.08
70009;BME280;59542;37.950;-122.338;2023-08-30T10:09:07;101057.78;;;16.64;75.05
70009;BME280;59542;37.950;-122.338;2023-08-30T10:11:38;101055.91;;;16.65;74.79
70009;BME280;59542;37.950;-122.338;2023-08-30T10:14:05;101063.44;;;16.63;74.96
70009;BME280;59542;37.950;-122.338;2023-08-30T10:16:43;101059.94;;;16.62;75.10
70009;BME280;59542;37.950;-122.338;2023-08-30T10:19:30;101061.72;;;16.57;75.28
70009;BME280;59542;37.950;-122.338;2023-08-30T10:22:04;101050.09;;;16.56;74.89
70009;BME280;59542;37.950;-122.338;2023-08-30T10:24:41;101055.13;;;16.53;74.98
70009;BME280;59542;37.950;-122.338;2023-08-30T10:27:09;101054.81;;;16.49;75.20
70009;BME280;59542;37.950;-122.338;2023-08-30T10:29:38;101061.50;;;16.47;75.24
70009;BME280;59542;37.950;-122.338;2023-08-30T10:32:06;101054.09;;;16.42;75.34
70009;BME280;59542;37.950;-122.338;2023-08-30T10:34:35;101050.59;;;16.42;75.72
70009;BME280;59542;37.950;-122.338;2023-08-30T10:37:03;101049.19;;;16.39;75.99
70009;BME280;59542;37.950;-122.338;2023-08-30T10:39:37;101058.44;;;16.43;75.85
70009;BME280;59542;37.950;-122.338;2023-08-30T10:42:14;101049.53;;;16.43;76.07
70009;BME280;59542;37.950;-122.338;2023-08-30T10:45:06;101048.59;;;16.37;76.29
70009;BME280;59542;37.950;-122.338;2023-08-30T10:47:37;101048.50;;;16.32;76.55
70009;BME280;59542;37.950;-122.338;2023-08-30T10:50:07;101050.63;;;16.30;76.25
70009;BME280;59542;37.950;-122.338;2023-08-30T10:52:34;101043.72;;;16.22;76.39
70009;BME280;59542;37.950;-122.338;2023-08-30T10:55:11;101036.19;;;16.24;76.85
70009;BME280;59542;37.950;-122.338;2023-08-30T10:57:41;101038.31;;;16.22;76.59
70009;BME280;59542;37.950;-122.338;2023-08-30T11:00:21;101038.44;;;16.16;76.97
70009;BME280;59542;37.950;-122.338;2023-08-30T11:02:51;101026.00;;;16.15;77.08
70009;BME280;59542;37.950;-122.338;2023-08-30T11:05:22;101031.63;;;16.13;77.41
70009;BME280;59542;37.950;-122.338;2023-08-30T11:07:49;101036.22;;;16.13;77.31
70009;BME280;59542;37.950;-122.338;2023-08-30T11:10:17;101027.75;;;16.09;77.31
70009;BME280;59542;37.950;-122.338;2023-08-30T11:12:45;101027.19;;;16.07;77.20
70009;BME280;59542;37.950;-122.338;2023-08-30T11:15:13;101024.50;;;16.07;77.17
70009;BME280;59542;37.950;-122.338;2023-08-30T11:17:43;101032.84;;;16.05;77.32
70009;BME280;59542;37.950;-122.338;2023-08-30T11:20:11;101024.13;;;16.03;76.94
70009;BME280;59542;37.950;-122.338;2023-08-30T11:22:46;101030.59;;;16.02;76.76
70009;BME280;59542;37.950;-122.338;2023-08-30T11:25:14;101033.28;;;16.02;76.82
70009;BME280;59542;37.950;-122.338;2023-08-30T11:27:41;101037.06;;;16.01;76.58
70009;BME280;59542;37.950;-122.338;2023-08-30T11:30:09;101034.00;;;15.98;76.30
70009;BME280;59542;37.950;-122.338;2023-08-30T11:32:40;101037.53;;;15.98;75.84
70009;BME280;59542;37.950;-122.338;2023-08-30T11:35:10;101034.97;;;15.92;75.99
70009;BME280;59542;37.950;-122.338;2023-08-30T11:37:36;101027.44;;;15.82;76.12
70009;BME280;59542;37.950;-122.338;2023-08-30T11:40:03;101032.63;;;15.83;75.79
70009;BME280;59542;37.950;-122.338;2023-08-30T11:42:32;101031.00;;;15.82;75.81
70009;BME280;59542;37.950;-122.338;2023-08-30T11:44:58;101029.31;;;15.81;75.37
70009;BME280;59542;37.950;-122.338;2023-08-30T11:47:26;101038.72;;;15.79;75.57
70009;BME280;59542;37.950;-122.338;2023-08-30T11:49:54;101045.41;;;15.76;75.52
70009;BME280;59542;37.950;-122.338;2023-08-30T11:52:21;101029.44;;;15.75;75.30
70009;BME280;59542;37.950;-122.338;2023-08-30T11:54:49;101032.03;;;15.70;75.76
70009;BME280;59542;37.950;-122.338;2023-08-30T11:57:16;101031.47;;;15.68;75.70
70009;BME280;59542;37.950;-122.338;2023-08-30T11:59:42;101032.53;;;15.67;75.66
70009;BME280;59542;37.950;-122.338;2023-08-30T12:02:11;101032.97;;;15.64;75.71
70009;BME280;59542;37.950;-122.338;2023-08-30T12:04:42;101028.84;;;15.61;75.83
70009;BME280;59542;37.950;-122.338;2023-08-30T12:07:09;101034.84;;;15.63;75.67
70009;BME280;59542;37.950;-122.338;2023-08-30T12:09:36;101029.06;;;15.59;75.57
70009;BME280;59542;37.950;-122.338;2023-08-30T12:12:09;101029.56;;;15.56;75.46
70009;BME280;59542;37.950;-122.338;2023-08-30T12:14:37;101033.75;;;15.52;75.48
70009;BME280;59542;37.950;-122.338;2023-08-30T12:17:04;101021.34;;;15.51;75.47
70009;BME280;59542;37.950;-122.338;2023-08-30T12:19:31;101023.78;;;15.53;75.83
70009;BME280;59542;37.950;-122.338;2023-08-30T12:22:07;101022.97;;;15.52;75.77
70009;BME280;59542;37.950;-122.338;2023-08-30T12:24:43;101022.28;;;15.45;76.03